createdAt,value
2022-10-15T00:03:01.098Z,48.3
2022-10-15T00:07:48.456Z,38.9
2022-10-15T00:13:15.079Z,31.3
2022-10-15T00:18:01.610Z,54.0
2022-10-15T00:23:47.197Z,66.0
2022-10-15T00:28:50.912Z,69.2
2022-10-15T00:33:57.446Z,39.0
2022-10-15T00:39:25.494Z,33.0
2022-10-15T00:44:11.815Z,35.7
2022-10-15T00:49:18.192Z,45.7
2022-10-15T00:54:24.575Z,30.7
2022-10-15T00:59:31.122Z,46.9
2022-10-15T01:05:49.482Z,36.9
2022-10-15T01:09:43.721Z,73.2
2022-10-15T01:14:50.246Z,33.9
2022-10-15T01:19:57.162Z,87.4
2022-10-15T01:25:47.675Z,56.0
2022-10-15T01:30:09.994Z,52.2
2022-10-15T01:35:16.355Z,42.7
2022-10-15T01:40:12.715Z,69.0
2022-10-15T01:45:31.085Z,120.0
2022-10-15T01:50:41.434Z,67.7
2022-10-15T01:55:43.889Z,49.2
2022-10-15T02:00:54.341Z,113.0
2022-10-15T02:05:58.290Z,53.8
2022-10-15T02:11:04.657Z,50.3
2022-10-15T02:16:35.133Z,66.5
2022-10-15T02:21:17.452Z,58.2
2022-10-15T02:26:23.884Z,107.2
2022-10-15T02:32:14.432Z,51.0
2022-10-15T02:36:36.777Z,88.0
2022-10-15T02:42:07.204Z,140.7
2022-10-15T02:47:13.625Z,115.9
2022-10-15T02:51:59.993Z,42.6
2022-10-15T02:57:02.417Z,60.7
2022-10-15T03:02:32.858Z,73.7
2022-10-15T03:07:35.404Z,38.8
2022-10-15T03:12:21.903Z,36.1
2022-10-15T03:17:32.309Z,31.0
2022-10-15T03:22:34.691Z,35.0
2022-10-15T03:28:01.187Z,31.2
2022-10-15T03:32:46.478Z,30.4
2022-10-15T03:37:43.852Z,32.8
2022-10-15T03:43:00.254Z,31.4
2022-10-15T03:47:56.707Z,35.8
2022-10-15T03:53:13.178Z,35.4
2022-10-15T03:58:39.618Z,33.7
2022-10-15T04:03:16.000Z,32.4
2022-10-15T04:09:10.441Z,43.8
2022-10-15T04:14:21.828Z,38.3
2022-10-15T04:19:27.853Z,38.1
2022-10-15T04:24:34.167Z,37.4
2022-10-15T04:29:40.573Z,55.4
2022-10-15T04:40:16.524Z,32.2
2022-10-15T04:45:03.824Z,41.8
2022-10-15T04:50:06.203Z,32.8
2022-10-15T04:55:12.623Z,42.8
2022-10-15T05:00:19.012Z,38.7
2022-10-15T05:05:25.383Z,32.0
2022-10-15T05:10:31.786Z,42.7
2022-10-15T05:15:38.190Z,40.9
2022-10-15T05:20:44.613Z,36.6
2022-10-15T05:25:53.278Z,33.4
2022-10-15T05:30:57.456Z,31.8
2022-10-15T05:36:03.831Z,32.9
2022-10-15T05:41:10.202Z,33.7
2022-10-15T05:46:16.793Z,38.7
2022-10-15T05:51:23.140Z,34.8
2022-10-15T05:56:53.566Z,41.6
2022-10-15T06:02:04.025Z,40.8
2022-10-15T06:06:47.287Z,35.0
2022-10-15T06:14:43.623Z,38.4
2022-10-15T06:17:01.729Z,32.2
2022-10-15T06:22:08.164Z,32.8
2022-10-15T06:27:14.620Z,38.4
2022-10-15T06:32:21.002Z,30.5
2022-10-15T06:37:27.459Z,31.0
2022-10-15T06:42:57.825Z,35.4
2022-10-15T06:48:03.190Z,36.8
2022-10-15T06:52:46.729Z,32.2
2022-10-15T06:57:53.143Z,33.1
2022-10-15T07:02:59.637Z,38.5
2022-10-15T07:07:56.117Z,24.3
2022-10-15T07:13:32.588Z,39.2
2022-10-15T07:18:18.976Z,43.4
2022-10-15T07:23:49.435Z,30.3
2022-10-15T07:28:31.881Z,44.1
2022-10-15T07:33:38.166Z,36.0
2022-10-15T07:38:44.729Z,32.3
2022-10-15T07:45:03.301Z,51.2
2022-10-15T07:48:57.482Z,46.4
2022-10-15T07:54:03.845Z,36.5
2022-10-15T07:59:34.331Z,44.5
2022-10-15T08:04:16.667Z,40.5
2022-10-15T08:09:23.037Z,51.1
2022-10-15T08:14:29.538Z,41.6
2022-10-15T08:19:35.988Z,45.2
2022-10-15T08:24:32.438Z,47.8
2022-10-15T08:29:48.917Z,40.7
2022-10-15T08:34:55.411Z,42.0
2022-10-15T08:40:01.768Z,61.2
2022-10-15T08:45:08.136Z,42.7
2022-10-15T08:50:14.547Z,56.5
2022-10-15T08:55:21.076Z,40.7
2022-10-15T09:00:27.380Z,49.4
2022-10-15T09:05:33.850Z,43.4
2022-10-15T09:10:30.185Z,37.8
2022-10-15T09:15:35.616Z,34.2
2022-10-15T09:20:53.038Z,39.8
2022-10-15T09:25:59.385Z,42.9
2022-10-15T09:31:25.788Z,30.5
2022-10-15T09:36:12.162Z,28.3
2022-10-15T09:41:42.581Z,22.3
2022-10-15T09:46:14.892Z,26.8
2022-10-15T09:51:55.724Z,34.3
2022-10-15T09:59:26.429Z,28.0
2022-10-15T10:01:44.451Z,33.0
2022-10-15T10:06:50.958Z,37.7
2022-10-15T10:11:58.120Z,32.0
2022-10-15T10:17:04.601Z,41.4
2022-10-15T10:22:00.966Z,38.2
2022-10-15T10:27:21.524Z,34.3
2022-10-15T10:32:23.796Z,33.9
2022-10-15T10:38:42.309Z,29.5
2022-10-15T10:42:36.577Z,25.3
2022-10-15T10:47:56.974Z,34.6
2022-10-15T10:52:39.333Z,22.8
2022-10-15T10:57:54.875Z,18.4
2022-10-15T11:03:02.357Z,18.0
2022-10-15T11:08:08.844Z,20.1
2022-10-15T11:13:05.402Z,17.3
2022-10-15T11:18:25.752Z,14.8
2022-10-15T11:23:28.118Z,18.4
2022-10-15T11:28:34.609Z,17.3
2022-10-15T11:33:40.861Z,19.4
2022-10-15T11:38:46.254Z,17.1
2022-10-15T11:43:53.648Z,27.0
2022-10-15T11:49:24.232Z,14.8
2022-10-15T11:54:05.521Z,14.4
2022-10-15T11:59:33.060Z,14.3
2022-10-15T12:04:43.432Z,20.7
2022-10-15T12:09:25.775Z,20.9
2022-10-15T12:14:22.117Z,14.8
2022-10-15T12:19:38.610Z,13.7
2022-10-15T12:24:44.923Z,15.3
2022-10-15T12:32:15.148Z,14.0
2022-10-15T12:35:01.295Z,14.7
2022-10-15T12:40:27.716Z,13.5
2022-10-15T12:45:14.082Z,13.1
2022-10-15T12:50:20.495Z,13.2
2022-10-15T12:55:47.218Z,14.9
2022-10-15T13:00:23.549Z,13.8
2022-10-15T13:05:39.970Z,13.0
2022-10-15T13:10:46.326Z,12.8
2022-10-15T13:15:56.026Z,13.6
2022-10-15T13:22:11.313Z,12.2
2022-10-15T13:26:05.536Z,12.1
2022-10-15T13:31:01.900Z,13.3
2022-10-15T13:36:42.338Z,13.4
2022-10-15T13:41:48.738Z,12.7
2022-10-15T13:46:31.049Z,20.4
2022-10-15T13:51:37.428Z,13.2
2022-10-15T13:57:55.985Z,18.1
2022-10-15T14:01:50.193Z,13.5
2022-10-15T14:06:57.116Z,14.4
2022-10-15T14:12:03.590Z,13.9
2022-10-15T14:17:09.359Z,32.6
2022-10-15T14:22:15.777Z,13.9
2022-10-15T14:27:22.414Z,14.5
2022-10-15T14:32:28.546Z,15.8
2022-10-15T14:37:58.954Z,13.7
2022-10-15T14:42:41.303Z,13.6
2022-10-15T14:47:49.307Z,13.8
2022-10-15T14:52:55.860Z,12.7
2022-10-15T14:58:02.308Z,13.4
2022-10-15T15:03:08.840Z,13.5
2022-10-15T15:08:16.622Z,13.6
2022-10-15T15:13:22.986Z,12.8
2022-10-15T15:18:29.383Z,16.6
2022-10-15T15:23:35.737Z,13.6
2022-10-15T15:28:46.238Z,13.1
2022-10-15T15:33:48.504Z,13.3
2022-10-15T15:38:54.860Z,12.8
2022-10-15T15:44:05.278Z,13.4
2022-10-15T15:49:33.370Z,13.3
2022-10-15T15:54:15.621Z,15.2
2022-10-15T15:59:22.013Z,14.0
2022-10-15T16:04:32.385Z,13.5
2022-10-15T16:09:36.353Z,15.2
2022-10-15T16:14:42.712Z,14.1
2022-10-15T16:19:50.719Z,12.2
2022-10-15T16:24:57.224Z,12.7
2022-10-15T16:30:03.708Z,14.6
2022-10-15T16:35:10.074Z,18.9
2022-10-15T16:40:16.622Z,12.7
2022-10-15T16:50:29.895Z,12.4
2022-10-15T16:55:37.293Z,19.8
2022-10-15T17:00:43.647Z,13.4
2022-10-15T17:05:55.622Z,13.5
2022-10-15T17:10:58.084Z,12.5
2022-10-15T17:16:04.516Z,13.1
2022-10-15T17:21:10.892Z,12.4
2022-10-15T17:26:17.352Z,14.8
2022-10-15T17:31:23.735Z,14.6
2022-10-15T17:37:42.222Z,20.2
2022-10-15T17:41:36.527Z,15.5
2022-10-15T17:46:42.989Z,13.9
2022-10-15T17:51:49.275Z,14.6
2022-10-15T17:58:11.797Z,15.0
2022-10-15T18:02:41.152Z,16.1
2022-10-15T18:07:38.559Z,14.9
2022-10-15T18:12:45.087Z,12.9
2022-10-15T18:17:51.496Z,13.3
2022-10-15T18:23:07.874Z,16.4
2022-10-15T18:28:14.254Z,15.6
2022-10-15T18:33:20.655Z,15.0
2022-10-15T18:38:41.039Z,13.4
2022-10-15T18:43:23.381Z,12.6
2022-10-15T18:48:39.814Z,14.2
2022-10-15T18:53:36.270Z,12.4
2022-10-15T18:58:52.680Z,12.5
2022-10-15T19:03:59.093Z,16.4
2022-10-15T19:14:31.856Z,12.8
2022-10-15T19:19:18.223Z,18.3
2022-10-15T19:25:08.793Z,16.3
2022-10-15T19:29:33.006Z,12.7
2022-10-15T19:34:27.584Z,13.4
2022-10-15T19:39:44.077Z,22.4
2022-10-15T19:44:50.473Z,16.2
2022-10-15T19:49:56.912Z,17.4
2022-10-15T20:00:09.230Z,13.5
2022-10-15T20:05:16.618Z,12.7
2022-10-15T20:10:25.892Z,12.5
2022-10-15T20:15:53.414Z,12.6
2022-10-15T20:20:35.800Z,12.3
2022-10-15T20:26:10.164Z,19.1
2022-10-15T20:30:48.692Z,12.5
2022-10-15T20:35:45.125Z,12.1
2022-10-15T20:41:01.505Z,12.0
2022-10-15T20:46:27.951Z,19.1
2022-10-15T20:51:34.362Z,13.8
2022-10-15T20:56:20.673Z,12.7
2022-10-15T21:01:27.115Z,16.1
2022-10-15T21:06:33.556Z,12.2
2022-10-15T21:11:40.050Z,12.2
2022-10-15T21:17:00.529Z,12.2
2022-10-15T21:22:13.047Z,12.4
2022-10-15T21:27:23.777Z,12.3
2022-10-15T21:32:29.843Z,13.8
2022-10-15T21:37:12.199Z,11.9
2022-10-15T21:42:18.583Z,13.0
2022-10-15T21:47:25.403Z,12.9
2022-10-15T21:52:21.509Z,12.8
2022-10-15T21:57:28.342Z,28.1
2022-10-15T22:02:44.302Z,16.1
2022-10-15T22:08:10.709Z,15.4
2022-10-15T22:12:57.045Z,17.2
2022-10-15T22:17:53.437Z,14.5
2022-10-15T22:23:09.897Z,13.8
2022-10-15T22:28:19.275Z,12.3
2022-10-15T22:33:42.641Z,11.8
2022-10-15T22:38:53.208Z,12.2
2022-10-15T22:43:35.569Z,13.3
2022-10-15T22:49:06.009Z,16.9
2022-10-15T22:53:48.328Z,12.8
2022-10-15T22:58:44.688Z,11.9
2022-10-15T23:04:01.125Z,15.5
2022-10-15T23:09:07.489Z,14.9
2022-10-15T23:14:13.891Z,12.7
2022-10-15T23:19:34.395Z,12.6
2022-10-15T23:24:46.926Z,13.4
2022-10-15T23:29:33.247Z,19.5
2022-10-15T23:34:29.617Z,12.2
2022-10-15T23:39:46.014Z,16.8
2022-10-15T23:45:16.483Z,13.2
2022-10-15T23:49:48.764Z,12.5
2022-10-15T23:55:05.169Z,12.3
